Terminal Aerodrome Forecast
Issued by NWS Quad Cities IA IL

Home | Current Version | Previous Version | Text Only | Print | Product List | Glossary On
Versions: 1 2 3 4 5 6 7 8 9 10 11 12 13 14 15 16
020
FTUS43 KDVN 030520
TAFMLI
TAF
KMLI 030520Z 0306/0406 VRB03KT P6SM BKN080
     FM031500 28008KT P6SM SKC
     FM032000 27014G22KT P6SM SCT200
     FM040000 25011KT P6SM BKN100 PROB30 0401/0404 5SM -SHRA BKN040=

USA.gov is the U.S. government's official web portal to all federal, state and local government web resources and services.